Main page
METAR-TAF:

METAR-TAF

Airports :

Kuwait International Airport

Kuwait City, Kuwait

latitude: 29-13N, longitude: 047-59E, elevation: 55 m

Current weather observation

The report was made 23 minutes ago, at 20:00 UTC
Wind 10 kt from the North/Northwest
Temperature 39°C
Humidity 13%
Pressure 998 hPa
Visibility 10 km or more
no clouds below 1500 m and no cumulonimbus

METAR: OKBK 182000Z 33010KT CAVOK 39/06 Q0998 NOSIG

Time: 23:23 (20:23 UTC)

Forecast

The report was made 3 hours and 38 minutes ago, at 16:45 UTC
Forecast valid from 18 at 18 UTC to 19 at 24 UTC
Wind 8 kt from the North with gusts up to 18 kt
Visibility 10 km or more
no clouds below 1500 m and no cumulonimbus

TAF: OKBK 181645Z 1818/1924 35008G18KT CAVOK

Weather observations and forecasts of more than 4000 airports (METAR and TAF reports).

The available stations are represented by yellow and red dots on the map.

Hover mouse over dot to see the name of the station.

Then click to see weather observations and forecasts.

To change the map : click on the green buttons with a black cross to zoom in, on the green button with a dash to zoom out, or on the green arrows for adjacent maps.


METAR-TAF: